Weather at Riyan Mukalla International Airport

Public forecast

Using degrees Celsius for public forecast. Weather courtesy of forecast.io.

Current aviation weather report (METAR) for Riyan Mukalla International Airport

Report is more than 6 hours old.

Retrieved 2015/03/26 07:00 UTC (6 years ago):

OYRN 260700Z 16006KT CAVOK 32/12 Q1015

Aviation forecast (TAF) for Riyan Mukalla International Airport

Forecast is more than 12 hours old.

Retrieved 2015/03/18 12:37 UTC (6 years ago):

TAF OYRN 181238Z 1812/1918 13012KT 8000 SCT020 BECMG 1818/1820 VRB03KT BECMG 1906/1908 13012KT BECMG 1916/1918 VRB03KT